createdAt,value
2022-08-29T00:00:33.120Z,7.5
2022-08-29T00:06:27.105Z,7.2
2022-08-29T00:12:18.185Z,6.7
2022-08-29T00:18:10.488Z,7
2022-08-29T00:24:02.978Z,6.7
2022-08-29T00:29:51.554Z,7.8
2022-08-29T00:35:46.574Z,9
2022-08-29T00:41:39.933Z,6.9
2022-08-29T00:47:32.813Z,7.5
2022-08-29T00:53:24.061Z,6.8
2022-08-29T00:59:17.202Z,7.2
2022-08-29T01:05:08.469Z,5.8
2022-08-29T01:11:00.276Z,6.3
2022-08-29T01:16:52.472Z,5.3
2022-08-29T01:22:45.498Z,7
2022-08-29T01:28:37.277Z,6.7
2022-08-29T01:34:28.582Z,6
2022-08-29T01:40:19.858Z,8.1
2022-08-29T01:46:12.874Z,9.6
2022-08-29T01:52:05.105Z,5.8
2022-08-29T01:57:57.438Z,7.3
2022-08-29T02:03:47.644Z,6.5
2022-08-29T02:09:47.077Z,7.5
2022-08-29T02:15:37.460Z,5.6
2022-08-29T02:21:28.533Z,7.4
2022-08-29T02:27:19.898Z,8.1
2022-08-29T02:33:11.313Z,7.4
2022-08-29T02:39:02.279Z,8.1
2022-08-29T02:44:54.815Z,8.5
2022-08-29T02:50:46.551Z,6.2
2022-08-29T02:56:37.178Z,8.4
2022-08-29T03:02:28.472Z,6.6
2022-08-29T03:08:19.607Z,8.4
2022-08-29T03:14:09.564Z,10.6
2022-08-29T03:20:00.713Z,7.7
2022-08-29T03:25:51.643Z,10.1
2022-08-29T03:31:41.322Z,8
2022-08-29T03:37:33.552Z,8.3
2022-08-29T03:43:25.203Z,7.9
2022-08-29T03:49:16.271Z,7.7
2022-08-29T03:55:06.952Z,7.9
2022-08-29T04:00:57.400Z,6.9
2022-08-29T04:06:48.101Z,7.5
2022-08-29T04:12:39.119Z,8
2022-08-29T04:18:30.785Z,8
2022-08-29T04:24:21.572Z,10.3
2022-08-29T04:30:14.045Z,8
2022-08-29T04:36:06.823Z,6.4
2022-08-29T04:42:02.735Z,8.3
2022-08-29T04:47:56.316Z,8
2022-08-29T04:53:52.985Z,8.1
2022-08-29T04:59:44.920Z,8.5
2022-08-29T05:05:36.370Z,7.7
2022-08-29T05:11:27.987Z,6.7
2022-08-29T05:17:19.313Z,6.5
2022-08-29T05:23:10.561Z,10
2022-08-29T05:29:09.901Z,8.4
2022-08-29T05:35:00.589Z,8.4
2022-08-29T05:40:53.405Z,9.5
2022-08-29T05:46:45.087Z,11.5
2022-08-29T05:52:40.032Z,13.4
2022-08-29T05:58:30.806Z,9.7
2022-08-29T06:04:20.475Z,15.2
2022-08-29T06:10:12.620Z,17.7
2022-08-29T06:16:05.571Z,19.5
2022-08-29T06:21:57.302Z,14.5
2022-08-29T06:27:49.024Z,15.7
2022-08-29T06:33:38.825Z,11.6
2022-08-29T06:39:27.811Z,11.9
2022-08-29T06:45:16.397Z,12.2
2022-08-29T06:51:06.903Z,13.6
2022-08-29T06:56:56.008Z,10.9
2022-08-29T07:02:53.426Z,10.8
2022-08-29T07:08:59.044Z,12.7
2022-08-29T07:14:46.873Z,11
2022-08-29T07:20:40.577Z,12.1
2022-08-29T07:26:32.231Z,12.4
2022-08-29T07:32:28.292Z,10.8
2022-08-29T07:38:17.232Z,12.8
2022-08-29T07:44:05.840Z,11.2
2022-08-29T07:49:56.262Z,11.4
2022-08-29T07:55:46.810Z,11.9
2022-08-29T08:01:36.858Z,12.1
2022-08-29T08:07:35.119Z,11.1
2022-08-29T08:13:27.584Z,15.1
2022-08-29T08:19:17.570Z,12.5
2022-08-29T08:25:07.702Z,13.7
2022-08-29T08:30:56.010Z,10.8
2022-08-29T08:36:51.967Z,13.6
2022-08-29T08:42:44.063Z,14.2
2022-08-29T08:48:36.937Z,11.9
2022-08-29T08:54:26.713Z,12.2
2022-08-29T09:00:18.711Z,13.3
2022-08-29T09:06:10.230Z,10.9
2022-08-29T09:11:59.800Z,11.7
2022-08-29T09:17:50.666Z,10.2
2022-08-29T09:23:41.267Z,8.3
2022-08-29T09:29:34.648Z,9.6
2022-08-29T09:35:24.515Z,8.4
2022-08-29T09:41:15.092Z,8.2
2022-08-29T09:47:05.237Z,7.8
2022-08-29T09:52:55.842Z,8.5
2022-08-29T09:58:45.913Z,9.9
2022-08-29T10:04:37.477Z,8
2022-08-29T10:10:29.778Z,8.6
2022-08-29T10:16:22.418Z,9.9
2022-08-29T10:22:14.401Z,8.2
2022-08-29T10:28:05.723Z,8
2022-08-29T10:33:58.173Z,7.9
2022-08-29T10:39:54.103Z,5.3
2022-08-29T10:45:47.622Z,8.5
2022-08-29T10:51:38.628Z,8
2022-08-29T10:57:29.579Z,6.1
2022-08-29T11:03:21.677Z,6.4
2022-08-29T11:09:14.338Z,7.9
2022-08-29T11:15:05.576Z,9
2022-08-29T11:20:58.334Z,7.2
2022-08-29T11:26:51.276Z,10.7
2022-08-29T11:32:42.482Z,8.1
2022-08-29T11:38:33.669Z,7.7
2022-08-29T11:44:27.209Z,7.1
2022-08-29T11:50:18.146Z,7
2022-08-29T11:56:09.874Z,5.8
2022-08-29T12:02:03.402Z,5.7
2022-08-29T12:07:54.122Z,9.1
2022-08-29T12:13:46.846Z,7.3
2022-08-29T12:19:39.232Z,7.3
2022-08-29T12:25:29.488Z,7.6
2022-08-29T12:31:20.999Z,6.9
2022-08-29T12:37:13.905Z,6.1
2022-08-29T12:43:07.027Z,8.2
2022-08-29T12:49:02.570Z,5.6
2022-08-29T12:54:59.126Z,6.4
2022-08-29T13:00:50.284Z,7.3
2022-08-29T13:06:41.291Z,6.5
2022-08-29T13:12:32.765Z,8.2
2022-08-29T13:18:22.835Z,5.7
2022-08-29T13:24:13.925Z,8.3
2022-08-29T13:30:05.305Z,7.8
2022-08-29T13:35:58.776Z,5.8
2022-08-29T13:41:48.747Z,5.9
2022-08-29T13:47:39.180Z,5.7
2022-08-29T13:53:30.457Z,7.1
2022-08-29T13:59:21.606Z,8.1
2022-08-29T14:05:13.159Z,6.7
2022-08-29T14:11:04.064Z,7.2
2022-08-29T14:17:01.465Z,6.6
2022-08-29T14:22:52.962Z,7.1
2022-08-29T14:28:51.117Z,6
2022-08-29T14:34:52.494Z,7.4
2022-08-29T14:40:47.903Z,6.5
2022-08-29T14:46:39.478Z,6.8
2022-08-29T14:52:34.081Z,14
2022-08-29T14:58:24.578Z,8
2022-08-29T15:04:18.008Z,6.7
2022-08-29T15:10:25.320Z,8.2
2022-08-29T15:16:17.613Z,7.9
2022-08-29T15:22:09.070Z,4.7
2022-08-29T15:28:01.406Z,8.6
2022-08-29T15:33:54.537Z,5.5
2022-08-29T15:39:46.963Z,5.7
2022-08-29T15:45:43.127Z,7.9
2022-08-29T15:51:36.733Z,11.5
2022-08-29T15:57:28.374Z,21.3
2022-08-29T16:03:19.599Z,10.3
2022-08-29T16:09:20.027Z,10.2
2022-08-29T16:15:14.402Z,6
2022-08-29T16:21:07.359Z,5.2
2022-08-29T16:26:58.871Z,8.1
2022-08-29T16:32:49.878Z,6.3
2022-08-29T16:38:40.743Z,9
2022-08-29T16:44:32.199Z,6.4
2022-08-29T16:50:23.201Z,6.7
2022-08-29T16:56:15.367Z,8.9
2022-08-29T17:02:06.737Z,6.3
2022-08-29T17:07:58.357Z,6.7
2022-08-29T17:13:49.934Z,6.2
2022-08-29T17:19:41.887Z,7.4
2022-08-29T17:25:32.646Z,10.1
2022-08-29T17:31:24.373Z,6
2022-08-29T17:37:16.656Z,9.9
2022-08-29T17:43:07.277Z,10.7
2022-08-29T17:48:58.609Z,6.6
2022-08-29T17:54:54.997Z,8.7
2022-08-29T18:00:46.551Z,8.4
2022-08-29T18:06:37.875Z,7.3
2022-08-29T18:12:30.655Z,8.6
2022-08-29T18:18:21.956Z,9.9
2022-08-29T18:24:16.018Z,9.9
2022-08-29T18:31:24.358Z,10
2022-08-29T18:37:13.993Z,10.1
2022-08-29T18:43:06.678Z,9.8
2022-08-29T18:49:00.939Z,7.9
2022-08-29T18:54:55.528Z,11.4
2022-08-29T19:00:47.246Z,8.8
2022-08-29T19:06:39.819Z,11.5
2022-08-29T19:12:31.255Z,9.3
2022-08-29T19:18:22.491Z,7.9
2022-08-29T19:24:13.350Z,9.5
2022-08-29T19:30:09.815Z,10.7
2022-08-29T19:36:00.661Z,11.2
2022-08-29T19:41:53.383Z,10.8
2022-08-29T19:47:46.253Z,9.4
2022-08-29T19:53:40.102Z,9.4
2022-08-29T19:59:36.513Z,9.5
2022-08-29T20:05:33.633Z,9.2
2022-08-29T20:11:25.379Z,10.6
2022-08-29T20:17:16.315Z,10.3
2022-08-29T20:23:08.462Z,9.2
2022-08-29T20:29:00.162Z,13.6
2022-08-29T20:34:53.645Z,9.2
2022-08-29T20:40:45.657Z,8.7
2022-08-29T20:46:36.594Z,8.3
2022-08-29T20:53:39.297Z,8.4
2022-08-29T20:59:36.388Z,8.6
2022-08-29T21:05:32.085Z,8.4
2022-08-29T21:11:22.619Z,8.1
2022-08-29T21:17:15.272Z,7
2022-08-29T21:23:06.366Z,9
2022-08-29T21:28:59.713Z,7
2022-08-29T21:35:55.468Z,9.7
2022-08-29T21:41:47.035Z,7.4
2022-08-29T21:47:40.221Z,6.8
2022-08-29T21:53:34.544Z,10
2022-08-29T21:59:30.787Z,10
2022-08-29T22:05:24.141Z,7.3
2022-08-29T22:11:15.144Z,9.8
2022-08-29T22:17:05.993Z,7.1
2022-08-29T22:22:57.362Z,7.4
2022-08-29T22:28:49.517Z,7.8
2022-08-29T22:34:41.656Z,10.1
2022-08-29T22:40:33.178Z,7.8
2022-08-29T22:46:24.636Z,10.8
2022-08-29T22:52:16.283Z,7
2022-08-29T22:58:08.018Z,9.4
2022-08-29T23:03:57.904Z,9
2022-08-29T23:09:47.349Z,7.9
2022-08-29T23:15:39.079Z,7.7
2022-08-29T23:21:32.216Z,7.6
2022-08-29T23:27:23.607Z,10.3
2022-08-29T23:33:14.953Z,8.8
2022-08-29T23:39:06.898Z,8.9
2022-08-29T23:44:59.381Z,8.7
2022-08-29T23:50:53.710Z,7.8
2022-08-29T23:56:44.321Z,8.7
